Time;durP1;ratioP1;P1;durP2;ratioP2;P2;SDS_P1;SDS_P2;PMS_P1;PMS_P2;Temp;Humidity;BMP_temperature;BMP_pressure;BME280_temperature;BME280_humidity;BME280_pressure;Samples;Min_cycle;Max_cycle;Signal;HPM_P1;HPM_P2
2022/01/24 00:00:23;;;;;;;6.72;5.80;;;5.70;99.90;;;;;;4988548;28;20156;-86
2022/01/24 00:02:49;;;;;;;9.35;6.47;;;5.80;99.90;;;;;;4988272;28;20053;-86
2022/01/24 00:05:17;;;;;;;7.18;5.70;;;6.00;99.90;;;;;;4988612;28;20407;-86
2022/01/24 00:07:42;;;;;;;6.63;5.93;;;6.20;99.90;;;;;;4971046;28;20137;-87
2022/01/24 00:10:13;;;;;;;6.93;6.07;;;5.70;99.90;;;;;;4988310;28;20478;-86
2022/01/24 00:16:30;;;;;;;9.15;7.63;;;6.00;99.90;;;;;;4957642;28;20218;-86
2022/01/24 00:18:31;;;;;;;;;;;5.60;99.90;;;;;;4958500;28;20522;-86
2022/01/24 00:26:47;;;;;;;12.07;9.13;;;5.90;99.90;;;;;;4973544;28;20054;-83
2022/01/24 00:29:23;;;;;;;12.73;9.52;;;5.60;99.90;;;;;;4970769;28;20090;-86
2022/01/24 00:31:49;;;;;;;13.60;9.15;;;5.60;99.90;;;;;;4970340;28;20094;-86
2022/01/24 00:34:15;;;;;;;14.88;9.30;;;6.10;99.90;;;;;;4988161;28;20089;-85
2022/01/24 00:36:41;;;;;;;11.82;9.07;;;6.10;99.90;;;;;;4970872;28;20047;-85
2022/01/24 00:39:07;;;;;;;13.27;9.15;;;5.60;99.90;;;;;;4987398;28;20559;-85
2022/01/24 00:41:41;;;;;;;12.07;9.82;;;5.60;99.90;;;;;;4970714;28;20141;-85
2022/01/24 00:46:56;;;;;;;20.38;10.48;;;5.60;99.90;;;;;;4988134;28;20277;-85
2022/01/24 00:54:52;;;;;;;;;;;5.60;99.90;;;;;;4988390;28;20408;-86
2022/01/24 00:57:18;;;;;;;14.73;9.77;;;5.60;99.90;;;;;;4970435;28;19967;-85
2022/01/24 00:59:44;;;;;;;14.43;9.88;;;5.60;99.90;;;;;;4954605;28;20051;-85
2022/01/24 01:02:10;;;;;;;13.65;10.40;;;5.70;99.90;;;;;;4970073;28;20258;-85
2022/01/24 01:18:27;;;;;;;16.35;11.07;;;5.60;99.90;;;;;;4977747;28;20559;-85
2022/01/24 01:23:24;;;;;;;17.40;12.23;;;5.60;99.90;;;;;;4971755;28;20051;-85
2022/01/24 01:25:52;;;;;;;13.25;10.75;;;5.40;99.90;;;;;;4970600;28;20050;-85
2022/01/24 01:28:18;;;;;;;14.90;11.32;;;5.60;99.90;;;;;;4970167;28;20062;-85
2022/01/24 01:30:48;;;;;;;17.02;13.20;;;5.40;99.90;;;;;;4971355;28;20051;-86
2022/01/24 01:33:42;;;;;;;18.58;12.40;;;5.50;99.90;;;;;;4969997;28;20077;-85
2022/01/24 01:36:16;;;;;;;18.15;12.45;;;5.50;99.90;;;;;;4955586;28;20054;-85
2022/01/24 01:53:18;;;;;;;15.57;11.70;;;5.40;99.90;;;;;;4956644;28;20147;-85
2022/01/24 01:55:39;;;;;;;16.83;12.15;;;5.40;99.90;;;;;;4969437;28;20063;-86
2022/01/24 01:58:06;;;;;;;18.55;12.77;;;5.40;99.90;;;;;;4972040;28;20059;-85
2022/01/24 02:00:32;;;;;;;18.00;12.88;;;5.40;99.90;;;;;;4972895;28;20057;-85
2022/01/24 02:02:57;;;;;;;18.38;12.65;;;5.50;99.90;;;;;;4990001;28;20504;-86
2022/01/24 02:05:23;;;;;;;18.00;12.95;;;5.70;99.90;;;;;;4990177;28;20145;-86
2022/01/24 02:07:50;;;;;;;17.42;12.15;;;5.40;99.90;;;;;;4989596;28;20062;-85
2022/01/24 02:10:16;;;;;;;16.90;12.70;;;5.40;99.90;;;;;;4972331;28;20050;-86
2022/01/24 02:12:41;;;;;;;19.05;13.95;;;5.40;99.90;;;;;;4972909;28;20046;-85
2022/01/24 02:15:08;;;;;;;17.60;12.60;;;5.30;99.90;;;;;;4972438;28;20057;-85
2022/01/24 02:20:39;;;;;;;15.82;12.23;;;5.30;99.90;;;;;;4968674;28;20133;-85
2022/01/24 02:23:31;;;;;;;15.93;11.35;;;5.30;99.90;;;;;;4958892;28;20058;-85
2022/01/24 02:25:58;;;;;;;16.25;12.30;;;5.30;99.90;;;;;;4972622;28;20129;-85
2022/01/24 02:28:27;;;;;;;16.63;11.10;;;5.30;99.90;;;;;;4972413;28;20089;-85
2022/01/24 02:33:24;;;;;;;13.93;11.18;;;5.30;99.90;;;;;;4941590;28;20395;-85
2022/01/24 02:35:50;;;;;;;13.32;11.13;;;5.30;99.90;;;;;;4940622;28;20054;-85
2022/01/24 02:49:10;;;;;;;;;;;5.30;99.90;;;;;;4961443;28;20103;-85
2022/01/24 02:51:48;;;;;;;19.00;12.25;;;5.90;99.90;;;;;;4972499;28;19973;-85
2022/01/24 02:54:24;;;;;;;19.08;12.65;;;5.30;99.90;;;;;;4989064;28;20054;-85
2022/01/24 02:56:50;;;;;;;17.77;12.73;;;5.30;99.90;;;;;;4955972;28;20055;-85
2022/01/24 02:59:15;;;;;;;19.00;12.75;;;5.80;99.90;;;;;;4971526;28;20400;-85
2022/01/24 03:01:44;;;;;;;16.15;12.07;;;5.30;99.90;;;;;;4972259;28;20051;-86
2022/01/24 03:04:10;;;;;;;16.85;12.90;;;5.30;99.90;;;;;;4955924;28;20072;-86
2022/01/24 03:06:36;;;;;;;19.05;12.77;;;5.30;99.90;;;;;;4972118;28;20050;-85
2022/01/24 03:09:03;;;;;;;19.25;12.60;;;5.30;99.90;;;;;;4972029;28;20499;-85
2022/01/24 03:11:49;;;;;;;15.88;11.75;;;5.30;99.90;;;;;;4971524;28;20057;-85
2022/01/24 03:14:15;;;;;;;17.75;12.38;;;5.30;99.90;;;;;;4971144;28;20557;-86
2022/01/24 03:16:40;;;;;;;19.17;12.55;;;5.30;99.90;;;;;;4989852;28;20057;-85
2022/01/24 03:19:06;;;;;;;18.13;12.98;;;5.20;99.90;;;;;;4990659;28;20046;-87
2022/01/24 03:21:32;;;;;;;19.20;13.00;;;5.30;99.90;;;;;;4982307;28;20054;-85
2022/01/24 03:23:58;;;;;;;18.00;12.80;;;5.90;99.90;;;;;;4963179;28;20065;-85
2022/01/24 03:26:23;;;;;;;19.63;13.38;;;5.20;99.90;;;;;;4988077;28;20054;-85
2022/01/24 03:28:49;;;;;;;19.88;13.90;;;5.30;99.90;;;;;;4989139;28;20180;-86
2022/01/24 03:31:15;;;;;;;20.73;13.70;;;5.30;99.90;;;;;;4971170;28;20373;-85
2022/01/24 03:33:40;;;;;;;21.13;14.45;;;5.20;99.90;;;;;;4939697;28;20176;-85
2022/01/24 03:36:06;;;;;;;21.20;14.32;;;5.20;99.90;;;;;;4988949;28;20061;-86
2022/01/24 03:38:31;;;;;;;21.80;13.75;;;5.20;99.90;;;;;;4971031;28;20055;-85
2022/01/24 03:40:57;;;;;;;20.60;14.52;;;5.20;99.90;;;;;;4955422;28;20050;-84
2022/01/24 03:43:23;;;;;;;24.33;16.10;;;5.20;99.90;;;;;;4988266;28;20061;-85
2022/01/24 03:46:10;;;;;;;21.35;14.35;;;5.50;99.90;;;;;;4971329;28;20093;-85
2022/01/24 03:48:56;;;;;;;22.92;15.48;;;5.20;99.90;;;;;;4988392;28;20058;-85
2022/01/24 03:51:22;;;;;;;22.77;15.05;;;5.20;99.90;;;;;;4971057;28;20063;-85
2022/01/24 03:53:48;;;;;;;21.73;15.30;;;5.20;99.90;;;;;;4971282;28;20086;-85
2022/01/24 03:56:14;;;;;;;22.25;15.55;;;5.20;99.90;;;;;;4970443;28;20155;-86
2022/01/24 03:58:42;;;;;;;22.17;14.98;;;5.90;99.90;;;;;;4971416;28;20053;-85
2022/01/24 04:01:08;;;;;;;22.80;16.27;;;5.20;99.90;;;;;;4939468;28;20053;-85
2022/01/24 04:03:34;;;;;;;20.38;15.55;;;5.20;99.90;;;;;;4988054;28;20058;-85
2022/01/24 04:06:00;;;;;;;25.02;15.35;;;5.80;99.90;;;;;;4988497;28;20049;-86
2022/01/24 04:08:26;;;;;;;24.60;17.48;;;5.20;99.90;;;;;;4988001;28;20046;-85
2022/01/24 04:10:55;;;;;;;25.30;16.63;;;5.20;99.90;;;;;;4971402;28;20065;-85
2022/01/24 04:23:43;;;;;;;;;;;5.20;99.90;;;;;;4957760;28;20059;-85
2022/01/24 04:26:08;;;;;;;23.15;16.40;;;5.20;99.90;;;;;;4988272;28;19929;-85
2022/01/24 04:28:34;;;;;;;23.75;16.90;;;5.20;99.90;;;;;;4987490;28;20284;-85
2022/01/24 04:31:00;;;;;;;26.77;17.40;;;5.20;99.90;;;;;;4973039;28;20472;-85
2022/01/24 04:33:25;;;;;;;26.50;17.45;;;5.20;99.90;;;;;;4990764;28;20503;-85
2022/01/24 04:35:51;;;;;;;28.35;16.95;;;5.30;99.90;;;;;;4991520;28;20156;-85
2022/01/24 04:38:17;;;;;;;25.38;17.52;;;5.20;99.90;;;;;;4991096;28;20077;-85
2022/01/24 04:40:43;;;;;;;25.02;17.42;;;5.20;99.90;;;;;;4991440;28;20047;-85
2022/01/24 04:56:33;;;;;;;23.85;16.90;;;5.30;99.90;;;;;;4979226;28;20057;-84
2022/01/24 04:58:58;;;;;;;24.95;17.45;;;5.80;99.90;;;;;;4991562;28;20054;-85
2022/01/24 05:01:24;;;;;;;27.15;18.00;;;5.20;99.90;;;;;;4973173;28;20130;-86
2022/01/24 05:03:50;;;;;;;26.05;17.65;;;5.10;99.90;;;;;;4974019;28;20046;-86
2022/01/24 05:06:15;;;;;;;23.70;16.83;;;5.10;99.90;;;;;;4991225;28;20088;-86
2022/01/24 05:08:42;;;;;;;24.88;16.70;;;5.10;99.90;;;;;;4990603;28;20042;-86
2022/01/24 05:11:11;;;;;;;27.55;17.95;;;5.10;99.90;;;;;;4991083;28;20047;-86
2022/01/24 05:24:34;;;;;;;20.33;15.27;;;5.10;99.90;;;;;;4973223;28;20050;-86
2022/01/24 05:27:00;;;;;;;23.17;16.05;;;5.10;99.90;;;;;;4973928;28;20062;-86
2022/01/24 05:29:26;;;;;;;26.08;16.92;;;5.20;99.90;;;;;;4973208;28;20738;-86
2022/01/24 05:31:51;;;;;;;22.83;15.77;;;5.20;99.90;;;;;;4957499;28;20510;-85
2022/01/24 05:34:17;;;;;;;20.60;14.73;;;5.10;99.90;;;;;;4973597;28;20506;-86
2022/01/24 05:36:43;;;;;;;18.77;15.05;;;5.10;99.90;;;;;;4972636;28;20137;-86
2022/01/24 05:39:11;;;;;;;22.15;15.10;;;5.30;99.90;;;;;;4973780;28;20054;-86
2022/01/24 05:41:37;;;;;;;22.90;15.35;;;5.10;99.90;;;;;;4972059;28;20057;-85
2022/01/24 05:44:04;;;;;;;24.00;15.88;;;5.10;99.90;;;;;;4990481;28;20050;-86
2022/01/24 05:46:30;;;;;;;20.92;14.98;;;5.10;99.90;;;;;;4956725;28;20050;-86
2022/01/24 05:48:56;;;;;;;20.83;14.40;;;5.10;99.90;;;;;;4990440;28;20545;-86
2022/01/24 05:51:22;;;;;;;24.55;15.02;;;5.10;99.90;;;;;;4990657;28;20046;-85
2022/01/24 05:53:47;;;;;;;23.15;15.57;;;5.10;99.90;;;;;;4972791;28;20054;-86
2022/01/24 05:56:13;;;;;;;19.63;14.25;;;5.10;99.90;;;;;;4990333;28;20091;-85
2022/01/24 05:58:39;;;;;;;20.77;14.52;;;5.10;99.90;;;;;;4990218;28;20056;-85
2022/01/24 06:01:04;;;;;;;19.67;13.90;;;5.00;99.90;;;;;;4973279;28;20421;-85
2022/01/24 06:03:30;;;;;;;22.15;15.02;;;5.00;99.90;;;;;;4990105;28;20054;-86
2022/01/24 06:05:56;;;;;;;20.67;14.73;;;5.10;99.90;;;;;;4973217;28;20066;-86
2022/01/24 06:08:22;;;;;;;19.63;13.73;;;5.10;99.90;;;;;;4990769;28;20054;-86
2022/01/24 06:10:48;;;;;;;21.27;13.57;;;5.10;99.90;;;;;;4989980;28;20109;-86
2022/01/24 06:13:14;;;;;;;22.55;14.82;;;5.00;99.90;;;;;;4973090;28;20058;-86
2022/01/24 06:15:41;;;;;;;18.33;13.52;;;5.00;99.90;;;;;;4956519;28;20058;-85
2022/01/24 06:18:06;;;;;;;23.83;14.40;;;5.00;99.90;;;;;;4972646;28;20530;-86
2022/01/24 06:20:32;;;;;;;20.30;14.23;;;5.00;99.90;;;;;;4989618;28;20120;-85
2022/01/24 06:22:58;;;;;;;21.38;14.68;;;5.00;99.90;;;;;;4990549;28;20061;-86
2022/01/24 06:25:25;;;;;;;20.80;14.00;;;5.00;99.90;;;;;;4990267;28;20058;-86
2022/01/24 06:27:51;;;;;;;21.45;14.70;;;5.00;99.90;;;;;;4989723;28;20049;-86
2022/01/24 06:30:17;;;;;;;21.33;14.80;;;5.00;99.90;;;;;;4956770;28;20063;-86
2022/01/24 06:32:42;;;;;;;19.23;13.60;;;5.00;99.90;;;;;;4972349;28;20054;-86
2022/01/24 06:35:09;;;;;;;22.25;15.20;;;5.10;99.90;;;;;;4972294;28;20121;-86
2022/01/24 06:37:35;;;;;;;21.17;14.18;;;5.00;99.90;;;;;;4989492;28;20128;-86
2022/01/24 06:40:01;;;;;;;20.58;14.95;;;5.00;99.90;;;;;;4956452;28;20061;-86
2022/01/24 06:42:26;;;;;;;24.17;15.20;;;5.00;99.90;;;;;;4972572;28;20046;-86
2022/01/24 06:44:53;;;;;;;21.77;14.35;;;5.00;99.90;;;;;;4972039;28;20050;-86
2022/01/24 06:47:19;;;;;;;21.42;14.00;;;5.50;99.90;;;;;;4989926;28;20082;-86
2022/01/24 06:49:45;;;;;;;19.20;13.63;;;5.10;99.90;;;;;;4972274;28;20048;-86
2022/01/24 06:52:11;;;;;;;21.77;13.63;;;5.00;99.90;;;;;;4972466;28;20449;-86
2022/01/24 06:54:37;;;;;;;22.75;14.15;;;5.00;99.90;;;;;;4971558;28;20511;-86
2022/01/24 06:57:03;;;;;;;22.33;14.75;;;5.00;99.90;;;;;;4955984;28;20058;-86
2022/01/24 06:59:28;;;;;;;18.00;13.30;;;5.00;99.90;;;;;;4989538;28;20061;-86
2022/01/24 07:01:54;;;;;;;21.27;14.25;;;5.00;99.90;;;;;;4955881;28;20038;-86
2022/01/24 07:04:20;;;;;;;20.05;14.15;;;5.20;99.90;;;;;;4989514;28;20046;-86
2022/01/24 07:06:46;;;;;;;21.25;14.52;;;5.00;99.90;;;;;;4989170;28;20050;-86
2022/01/24 07:09:12;;;;;;;18.55;13.50;;;5.20;99.90;;;;;;4989677;28;20092;-86
2022/01/24 07:11:39;;;;;;;20.50;14.00;;;5.00;99.90;;;;;;4971858;28;20573;-86
2022/01/24 07:14:10;;;;;;;19.38;13.93;;;5.00;99.90;;;;;;4956121;28;20047;-86
2022/01/24 07:17:03;;;;;;;20.65;13.90;;;5.00;99.90;;;;;;4989465;28;20498;-86
2022/01/24 07:19:32;;;;;;;20.88;14.65;;;5.00;99.90;;;;;;4957937;28;20059;-86
2022/01/24 07:21:59;;;;;;;23.63;16.10;;;5.00;99.90;;;;;;4972354;28;20132;-86
2022/01/24 07:24:25;;;;;;;25.30;16.75;;;5.00;99.90;;;;;;4989346;28;20104;-85
2022/01/24 07:26:51;;;;;;;27.63;16.58;;;5.50;99.90;;;;;;4939305;28;20046;-85
2022/01/24 07:29:17;;;;;;;30.75;18.35;;;5.00;99.90;;;;;;4971822;28;20054;-85
2022/01/24 07:31:43;;;;;;;28.85;18.30;;;5.00;99.90;;;;;;4955333;28;20077;-85
2022/01/24 07:34:08;;;;;;;32.28;18.70;;;5.00;99.90;;;;;;4971653;28;20480;-85
2022/01/24 07:36:34;;;;;;;30.98;18.95;;;5.00;99.90;;;;;;4971953;28;20093;-85
2022/01/24 07:39:00;;;;;;;30.38;18.77;;;5.00;99.90;;;;;;4988527;28;20058;-85
2022/01/24 07:41:28;;;;;;;28.13;18.88;;;5.00;99.90;;;;;;4971700;28;20050;-84
2022/01/24 07:43:55;;;;;;;30.00;19.67;;;5.00;99.90;;;;;;4971675;28;20125;-85
2022/01/24 07:46:20;;;;;;;29.52;19.45;;;5.00;99.90;;;;;;4988650;28;20583;-86
2022/01/24 07:48:46;;;;;;;28.63;18.88;;;5.70;99.90;;;;;;4971192;28;20125;-86
2022/01/24 07:51:12;;;;;;;29.25;18.70;;;5.10;99.90;;;;;;4955570;28;20121;-85
2022/01/24 07:53:37;;;;;;;28.27;18.88;;;5.30;99.90;;;;;;4971454;28;20122;-85
2022/01/24 07:56:04;;;;;;;36.35;20.40;;;5.10;99.90;;;;;;4955317;28;20065;-84
2022/01/24 07:58:29;;;;;;;30.83;18.98;;;5.10;99.90;;;;;;4971236;28;20069;-86
2022/01/24 08:00:55;;;;;;;28.38;19.38;;;5.10;99.90;;;;;;4970624;28;20067;-85
2022/01/24 08:03:21;;;;;;;31.42;18.95;;;5.30;99.90;;;;;;4971654;28;20046;-84
2022/01/24 08:05:46;;;;;;;37.97;22.50;;;5.10;99.90;;;;;;4970435;28;20211;-85
2022/01/24 08:08:12;;;;;;;36.53;23.42;;;5.10;99.90;;;;;;4971535;28;20050;-85
2022/01/24 08:10:38;;;;;;;41.97;25.20;;;5.10;99.90;;;;;;4971219;28;20053;-84
2022/01/24 08:13:03;;;;;;;39.38;24.10;;;5.10;99.90;;;;;;4970738;28;20056;-85
2022/01/24 08:15:29;;;;;;;42.80;25.45;;;5.20;99.90;;;;;;4971389;28;20112;-85
2022/01/24 08:17:55;;;;;;;41.95;25.23;;;5.10;99.90;;;;;;4954966;28;20050;-84
2022/01/24 08:20:21;;;;;;;45.58;25.20;;;5.10;99.90;;;;;;4988455;28;20050;-84
2022/01/24 08:22:46;;;;;;;42.13;25.27;;;5.20;99.90;;;;;;4970640;28;20047;-86
2022/01/24 08:25:13;;;;;;;44.80;26.80;;;5.20;99.90;;;;;;4971416;28;20050;-87
2022/01/24 08:27:38;;;;;;;48.90;27.85;;;5.10;99.90;;;;;;4988599;28;20100;-87
2022/01/24 08:30:06;;;;;;;45.75;27.75;;;5.20;99.90;;;;;;4954841;28;20507;-84
2022/01/24 08:32:32;;;;;;;45.30;27.13;;;5.20;99.90;;;;;;4971087;28;20129;-85
2022/01/24 08:34:58;;;;;;;48.17;28.92;;;5.20;99.90;;;;;;4970711;28;20563;-85
2022/01/24 08:37:24;;;;;;;54.60;29.90;;;5.20;99.90;;;;;;4988331;28;20047;-84
2022/01/24 08:39:50;;;;;;;49.03;28.58;;;5.20;99.90;;;;;;4987733;28;20051;-84
2022/01/24 08:42:55;;;;;;;54.38;31.42;;;5.30;99.90;;;;;;4970964;28;20050;-85
2022/01/24 08:47:52;;;;;;;57.13;31.63;;;5.30;99.90;;;;;;4987755;28;20141;-85
2022/01/24 08:50:20;;;;;;;57.10;31.65;;;5.30;99.90;;;;;;4970944;28;20133;-85
2022/01/24 08:52:46;;;;;;;57.40;32.45;;;5.30;99.90;;;;;;4970840;28;20404;-86
2022/01/24 08:55:12;;;;;;;59.63;34.50;;;5.30;99.90;;;;;;4988139;28;20058;-85
2022/01/24 08:57:37;;;;;;;61.40;34.47;;;5.30;99.90;;;;;;4966708;28;20145;-85
2022/01/24 09:00:03;;;;;;;60.22;35.58;;;5.50;99.90;;;;;;4968061;28;20094;-85
2022/01/24 09:02:29;;;;;;;66.55;37.03;;;5.30;99.90;;;;;;4968764;28;20043;-85
2022/01/24 09:04:55;;;;;;;73.05;38.80;;;5.50;99.90;;;;;;4966922;28;20061;-85
2022/01/24 09:07:21;;;;;;;68.38;38.22;;;5.40;99.90;;;;;;4968540;28;20134;-85
2022/01/24 09:09:46;;;;;;;78.97;41.90;;;5.40;99.90;;;;;;4967477;28;20058;-85
2022/01/24 09:12:12;;;;;;;77.47;41.13;;;5.40;99.90;;;;;;4967023;28;20065;-84
2022/01/24 09:14:43;;;;;;;76.20;40.72;;;5.40;99.90;;;;;;4967433;28;20054;-85
2022/01/24 09:17:10;;;;;;;79.90;41.13;;;5.40;99.90;;;;;;4953115;28;20404;-85
2022/01/24 09:19:36;;;;;;;80.57;42.15;;;5.40;99.90;;;;;;4954678;28;20050;-84
2022/01/24 09:22:02;;;;;;;84.03;42.30;;;5.40;99.90;;;;;;4971262;28;20132;-85
2022/01/24 09:24:27;;;;;;;79.13;42.78;;;5.50;99.90;;;;;;4971525;28;20043;-85
2022/01/24 09:26:53;;;;;;;78.95;42.10;;;5.70;99.90;;;;;;4971163;28;20112;-86
2022/01/24 09:29:19;;;;;;;80.82;43.47;;;5.50;99.90;;;;;;4971524;28;20090;-85
2022/01/24 09:31:44;;;;;;;79.13;42.70;;;5.50;99.90;;;;;;4971798;28;20107;-85
2022/01/24 09:34:10;;;;;;;83.70;44.50;;;5.50;99.90;;;;;;4969771;28;20134;-85
2022/01/24 09:36:36;;;;;;;78.88;43.03;;;5.50;99.90;;;;;;4971466;28;20058;-85
2022/01/24 09:39:02;;;;;;;79.05;41.67;;;5.50;99.90;;;;;;4971366;28;20082;-85
2022/01/24 09:41:27;;;;;;;79.55;42.30;;;5.50;99.90;;;;;;4954030;28;20108;-85
2022/01/24 09:43:53;;;;;;;85.18;43.50;;;5.60;99.90;;;;;;4953815;28;20054;-86
2022/01/24 09:46:18;;;;;;;82.18;43.97;;;5.50;99.90;;;;;;4971313;28;20185;-85
2022/01/24 09:48:44;;;;;;;73.78;41.25;;;5.60;99.90;;;;;;4971289;28;20049;-86
2022/01/24 09:51:10;;;;;;;76.70;41.33;;;5.60;99.90;;;;;;4969520;28;20046;-85
2022/01/24 09:53:37;;;;;;;78.72;41.30;;;5.60;99.90;;;;;;4971259;28;20058;-85
2022/01/24 09:56:04;;;;;;;79.53;44.10;;;6.50;99.90;;;;;;4953348;28;20404;-85
2022/01/24 09:58:33;;;;;;;81.93;43.63;;;5.60;99.90;;;;;;4973164;28;20066;-85
2022/01/24 10:00:59;;;;;;;69.88;39.22;;;6.10;99.90;;;;;;4956891;28;20087;-86
2022/01/24 10:03:25;;;;;;;81.45;42.78;;;5.70;99.90;;;;;;4957362;28;20412;-86
2022/01/24 10:05:55;;;;;;;73.38;40.22;;;5.70;99.90;;;;;;4956893;28;20042;-85
2022/01/24 10:08:23;;;;;;;78.22;41.92;;;5.70;99.90;;;;;;4972914;28;20403;-85
2022/01/24 10:10:51;;;;;;;76.80;41.47;;;5.80;99.90;;;;;;4973271;28;20187;-86
2022/01/24 10:16:35;;;;;;;81.45;44.83;;;5.70;99.90;;;;;;4959737;28;20066;-86
2022/01/24 10:19:17;;;;;;;75.38;41.95;;;5.70;99.90;;;;;;4972544;28;20093;-86
2022/01/24 10:22:00;;;;;;;82.90;44.78;;;5.80;99.90;;;;;;4989931;28;20501;-85
2022/01/24 10:24:26;;;;;;;75.10;43.65;;;5.80;99.90;;;;;;4958074;28;20491;-85
2022/01/24 10:27:05;;;;;;;80.07;43.17;;;5.80;99.90;;;;;;4990145;28;20053;-86
2022/01/24 10:29:31;;;;;;;78.70;42.67;;;5.80;99.90;;;;;;4971942;28;20099;-85
2022/01/24 10:31:56;;;;;;;78.80;43.75;;;5.80;99.90;;;;;;4989792;28;20042;-86
2022/01/24 10:34:28;;;;;;;79.80;43.00;;;5.80;99.90;;;;;;4972284;28;20050;-85
2022/01/24 10:36:55;;;;;;;82.55;42.85;;;5.80;99.90;;;;;;4958189;28;20054;-85
2022/01/24 10:39:54;;;;;;;79.07;43.22;;;6.00;99.90;;;;;;4956060;28;20106;-85
2022/01/24 10:44:51;;;;;;;83.00;44.42;;;5.80;99.90;;;;;;4989319;28;20558;-85
2022/01/24 10:47:23;;;;;;;84.45;47.13;;;5.80;99.90;;;;;;4955843;28;20058;-86
2022/01/24 10:49:50;;;;;;;84.80;44.05;;;5.80;99.90;;;;;;4956320;28;20050;-85
2022/01/24 10:52:23;;;;;;;83.38;44.40;;;5.80;99.90;;;;;;4955625;28;20088;-86
2022/01/24 10:54:53;;;;;;;87.38;46.53;;;5.90;99.90;;;;;;4972326;28;20543;-86
2022/01/24 10:57:28;;;;;;;86.88;46.50;;;5.80;99.90;;;;;;4986356;28;20130;-85
2022/01/24 11:00:03;;;;;;;87.43;46.05;;;6.00;99.90;;;;;;4971847;28;20536;-85
2022/01/24 11:02:40;;;;;;;86.55;45.95;;;5.90;99.90;;;;;;4940074;28;20054;-85
2022/01/24 11:05:26;;;;;;;92.07;48.70;;;5.90;99.90;;;;;;4970661;28;20046;-86
2022/01/24 11:07:58;;;;;;;86.85;46.13;;;5.90;99.90;;;;;;4955170;28;20050;-86
2022/01/24 11:10:43;;;;;;;91.75;47.63;;;5.90;99.90;;;;;;4952380;28;20373;-85
2022/01/24 11:13:09;;;;;;;91.18;46.72;;;5.90;99.90;;;;;;4949352;28;20146;-85
2022/01/24 11:15:38;;;;;;;87.65;46.85;;;5.90;99.90;;;;;;4955776;28;20046;-84
2022/01/24 11:18:05;;;;;;;87.22;47.25;;;6.40;99.90;;;;;;4988560;28;20567;-86
2022/01/24 11:20:33;;;;;;;91.72;49.78;;;5.90;99.90;;;;;;4971538;28;20055;-85
2022/01/24 11:23:05;;;;;;;96.82;49.88;;;5.90;99.90;;;;;;4988697;28;20050;-84
2022/01/24 11:25:44;;;;;;;92.32;50.03;;;5.90;99.90;;;;;;4939720;28;20119;-84
2022/01/24 11:28:09;;;;;;;95.13;47.97;;;6.00;99.90;;;;;;4971105;28;20061;-85
2022/01/24 11:30:37;;;;;;;92.43;49.95;;;5.90;99.90;;;;;;4971132;28;20038;-85
2022/01/24 11:33:04;;;;;;;92.50;49.47;;;5.90;99.90;;;;;;4971432;28;20107;-86
2022/01/24 11:35:31;;;;;;;93.85;49.47;;;5.90;99.90;;;;;;4987668;28;20054;-86
2022/01/24 11:37:57;;;;;;;89.18;49.85;;;6.00;99.90;;;;;;4971261;28;20154;-85
2022/01/24 11:40:23;;;;;;;90.88;49.63;;;6.00;99.90;;;;;;4953066;28;20484;-86
2022/01/24 11:42:50;;;;;;;88.05;47.92;;;6.00;99.90;;;;;;4988169;28;20042;-87
2022/01/24 11:45:18;;;;;;;80.18;45.33;;;5.90;99.90;;;;;;4987670;28;20099;-86
2022/01/24 11:47:46;;;;;;;81.47;44.65;;;6.00;99.90;;;;;;4955627;28;20395;-85
2022/01/24 11:50:24;;;;;;;75.93;44.08;;;6.00;99.90;;;;;;4954872;28;20084;-86
2022/01/24 11:52:50;;;;;;;77.85;43.55;;;6.10;99.90;;;;;;4988544;28;20050;-85
2022/01/24 11:55:30;;;;;;;74.00;43.72;;;5.90;99.90;;;;;;4954215;28;20510;-86
2022/01/24 11:58:04;;;;;;;73.90;42.35;;;6.00;99.90;;;;;;4956775;28;20499;-86
2022/01/24 12:00:40;;;;;;;73.05;43.75;;;5.90;99.90;;;;;;4971084;28;20577;-86
2022/01/24 12:03:17;;;;;;;77.65;43.35;;;6.00;99.90;;;;;;4956383;28;20069;-86
2022/01/24 12:05:48;;;;;;;74.18;44.22;;;5.90;99.90;;;;;;4954862;28;20420;-85
2022/01/24 12:08:34;;;;;;;79.65;44.28;;;5.90;99.90;;;;;;4987594;28;20050;-87
2022/01/24 12:11:13;;;;;;;79.70;44.85;;;5.90;99.90;;;;;;4953038;28;20045;-85
2022/01/24 12:13:44;;;;;;;80.07;44.08;;;6.00;99.90;;;;;;4954975;28;20046;-85
2022/01/24 12:16:11;;;;;;;80.45;45.53;;;5.90;99.90;;;;;;4954721;28;20053;-86
2022/01/24 12:18:36;;;;;;;72.82;43.63;;;6.10;99.90;;;;;;4970830;28;20054;-85
2022/01/24 12:21:05;;;;;;;70.40;42.60;;;6.00;99.90;;;;;;4970582;28;20043;-85
2022/01/24 12:23:43;;;;;;;74.95;43.97;;;5.90;99.90;;;;;;4970148;28;20050;-86
2022/01/24 12:26:13;;;;;;;77.00;46.00;;;5.90;99.90;;;;;;4954980;28;20062;-85
2022/01/24 12:28:41;;;;;;;74.75;44.95;;;5.90;99.90;;;;;;4970619;28;20184;-85
2022/01/24 12:31:26;;;;;;;72.53;42.50;;;5.80;99.90;;;;;;4970599;28;20075;-85
2022/01/24 12:33:55;;;;;;;70.97;42.78;;;5.90;99.90;;;;;;4971041;28;20061;-86
2022/01/24 12:36:39;;;;;;;80.68;46.05;;;5.90;99.90;;;;;;4970459;28;20134;-86
2022/01/24 12:39:27;;;;;;;73.15;43.70;;;5.90;99.90;;;;;;4970520;28;20069;-86
2022/01/24 12:42:00;;;;;;;72.85;44.15;;;5.90;99.90;;;;;;4970516;28;20460;-85
2022/01/24 12:47:03;;;;;;;76.97;46.13;;;5.90;99.90;;;;;;4940857;28;20069;-85
2022/01/24 12:49:29;;;;;;;81.72;47.17;;;6.00;99.90;;;;;;4987293;28;20111;-85
2022/01/24 12:51:54;;;;;;;79.43;46.97;;;5.90;99.90;;;;;;4972071;28;20046;-85
2022/01/24 12:54:20;;;;;;;82.05;48.25;;;5.90;99.90;;;;;;4973015;28;20135;-86
2022/01/24 12:56:46;;;;;;;82.45;47.80;;;5.90;99.90;;;;;;4957288;28;20039;-85
2022/01/24 12:59:11;;;;;;;82.63;47.10;;;5.80;99.90;;;;;;4990297;28;20085;-86
2022/01/24 13:01:37;;;;;;;75.18;44.47;;;4.80;99.90;;;;;;4990240;28;20051;-87
2022/01/24 13:04:06;;;;;;;83.18;49.17;;;5.80;99.90;;;;;;4990958;28;20050;-87
2022/01/24 13:06:33;;;;;;;80.35;47.38;;;5.80;99.90;;;;;;4973548;28;20046;-87
2022/01/24 13:09:00;;;;;;;76.65;45.33;;;5.80;99.90;;;;;;4973674;28;20129;-87
2022/01/24 13:11:29;;;;;;;75.93;45.03;;;5.80;99.90;;;;;;4973378;28;20043;-86
2022/01/24 13:14:20;;;;;;;75.43;45.45;;;5.80;99.90;;;;;;4958100;28;20054;-87
2022/01/24 13:22:42;;;;;;;80.07;45.47;;;5.80;99.90;;;;;;4990529;28;20491;-86
2022/01/24 13:25:15;;;;;;;78.80;46.05;;;5.80;99.90;;;;;;4962285;28;20446;-87
2022/01/24 13:27:44;;;;;;;81.73;47.13;;;5.80;99.90;;;;;;4973167;28;20053;-87
2022/01/24 13:30:34;;;;;;;81.63;47.95;;;5.70;99.90;;;;;;4941670;28;20054;-87
2022/01/24 13:33:05;;;;;;;84.88;49.85;;;5.70;99.90;;;;;;4973427;28;20537;-86
2022/01/24 13:35:40;;;;;;;81.78;48.88;;;5.70;99.90;;;;;;4990604;28;20058;-86
2022/01/24 13:38:10;;;;;;;81.13;48.20;;;5.70;99.90;;;;;;4990265;28;20054;-86
2022/01/24 13:40:40;;;;;;;83.05;48.80;;;5.80;99.90;;;;;;4956189;28;20046;-86
2022/01/24 13:43:08;;;;;;;79.10;47.30;;;5.80;99.90;;;;;;4957720;28;20492;-86
2022/01/24 13:45:38;;;;;;;77.80;44.33;;;5.70;99.90;;;;;;4972539;28;20069;-86
2022/01/24 13:48:05;;;;;;;72.05;44.45;;;5.70;99.90;;;;;;4972938;28;20058;-86
2022/01/24 13:50:31;;;;;;;69.20;41.38;;;5.70;99.90;;;;;;4972679;28;20092;-85
2022/01/24 13:52:56;;;;;;;61.67;38.70;;;5.80;99.90;;;;;;4990450;28;20555;-86
2022/01/24 13:55:23;;;;;;;56.72;36.65;;;5.60;99.90;;;;;;4972479;28;20155;-86
2022/01/24 13:57:52;;;;;;;56.97;37.38;;;5.60;99.90;;;;;;4972824;28;20054;-86
2022/01/24 14:00:26;;;;;;;62.30;38.55;;;5.60;99.90;;;;;;4972992;28;20058;-88
2022/01/24 14:03:08;;;;;;;59.60;38.58;;;5.60;99.90;;;;;;4972646;28;20096;-87
2022/01/24 14:05:34;;;;;;;59.70;38.28;;;5.50;99.90;;;;;;4956489;28;20054;-86
2022/01/24 14:08:16;;;;;;;61.60;38.35;;;5.60;99.90;;;;;;4990183;28;20046;-87
2022/01/24 14:10:42;;;;;;;62.97;37.05;;;5.60;99.90;;;;;;4956396;28;20062;-87
2022/01/24 14:13:09;;;;;;;53.80;35.30;;;5.70;99.90;;;;;;4972611;28;20121;-87
2022/01/24 14:20:46;;;;;;;53.63;35.28;;;5.50;99.90;;;;;;4990007;28;20058;-87
2022/01/24 14:23:38;;;;;;;52.60;32.88;;;5.50;99.90;;;;;;4972626;28;20058;-86
2022/01/24 14:26:18;;;;;;;54.10;34.53;;;5.40;99.90;;;;;;4989966;28;20069;-86
2022/01/24 14:28:44;;;;;;;53.28;33.05;;;5.60;99.90;;;;;;4972402;28;20111;-87
2022/01/24 14:31:13;;;;;;;51.08;34.40;;;5.50;99.90;;;;;;4956748;28;20054;-86
2022/01/24 14:33:39;;;;;;;57.13;35.97;;;5.50;99.90;;;;;;4989380;28;20129;-86
2022/01/24 14:36:11;;;;;;;54.83;35.05;;;5.50;99.90;;;;;;4990314;28;20042;-86
2022/01/24 14:39:00;;;;;;;54.08;34.83;;;5.50;99.90;;;;;;4957519;28;20088;-86
2022/01/24 14:41:37;;;;;;;62.85;38.70;;;5.50;99.90;;;;;;4972278;28;20043;-89
2022/01/24 14:46:50;;;;;;;65.88;41.03;;;5.50;99.90;;;;;;4974660;28;20086;-86
2022/01/24 14:49:19;;;;;;;64.03;39.78;;;5.40;99.90;;;;;;4956437;28;20057;-86